sensor_id;sensor_type;location;lat;lon;timestamp;P1;durP1;ratioP1;P2;durP2;ratioP2
38379;SDS011;38377;47.418;18.882;2023-02-24T00:01:35;19.05;;;11.73;;
38379;SDS011;38377;47.418;18.882;2023-02-24T00:04:06;17.90;;;12.23;;
38379;SDS011;38377;47.418;18.882;2023-02-24T00:06:34;18.02;;;11.80;;
38379;SDS011;38377;47.418;18.882;2023-02-24T00:09:14;18.33;;;11.57;;
38379;SDS011;38377;47.418;18.882;2023-02-24T00:11:46;19.88;;;11.48;;
38379;SDS011;38377;47.418;18.882;2023-02-24T00:14:18;20.98;;;13.02;;
38379;SDS011;38377;47.418;18.882;2023-02-24T00:16:44;20.73;;;13.48;;
38379;SDS011;38377;47.418;18.882;2023-02-24T00:19:11;20.67;;;13.30;;
38379;SDS011;38377;47.418;18.882;2023-02-24T00:21:40;22.13;;;13.20;;
38379;SDS011;38377;47.418;18.882;2023-02-24T00:24:07;20.40;;;13.27;;
38379;SDS011;38377;47.418;18.882;2023-02-24T00:26:33;20.58;;;13.40;;
38379;SDS011;38377;47.418;18.882;2023-02-24T00:28:59;24.90;;;13.27;;
38379;SDS011;38377;47.418;18.882;2023-02-24T00:31:29;18.55;;;12.60;;
38379;SDS011;38377;47.418;18.882;2023-02-24T00:33:55;21.35;;;13.65;;
38379;SDS011;38377;47.418;18.882;2023-02-24T00:36:21;20.48;;;12.70;;
38379;SDS011;38377;47.418;18.882;2023-02-24T00:38:51;21.05;;;14.60;;
38379;SDS011;38377;47.418;18.882;2023-02-24T00:41:22;22.05;;;13.90;;
38379;SDS011;38377;47.418;18.882;2023-02-24T00:43:53;24.00;;;14.43;;
38379;SDS011;38377;47.418;18.882;2023-02-24T00:46:21;21.25;;;13.63;;
38379;SDS011;38377;47.418;18.882;2023-02-24T00:48:50;25.55;;;14.25;;
38379;SDS011;38377;47.418;18.882;2023-02-24T00:51:22;17.17;;;11.43;;
38379;SDS011;38377;47.418;18.882;2023-02-24T00:53:50;23.13;;;14.30;;
38379;SDS011;38377;47.418;18.882;2023-02-24T00:56:20;21.17;;;13.75;;
38379;SDS011;38377;47.418;18.882;2023-02-24T00:58:46;22.30;;;14.20;;
38379;SDS011;38377;47.418;18.882;2023-02-24T01:01:13;20.60;;;13.35;;
38379;SDS011;38377;47.418;18.882;2023-02-24T01:03:41;18.70;;;13.13;;
38379;SDS011;38377;47.418;18.882;2023-02-24T01:06:07;24.38;;;14.60;;
38379;SDS011;38377;47.418;18.882;2023-02-24T01:08:33;18.45;;;12.82;;
38379;SDS011;38377;47.418;18.882;2023-02-24T01:11:06;20.85;;;14.30;;
38379;SDS011;38377;47.418;18.882;2023-02-24T01:13:51;21.88;;;13.65;;
38379;SDS011;38377;47.418;18.882;2023-02-24T01:16:17;24.60;;;14.43;;
38379;SDS011;38377;47.418;18.882;2023-02-24T01:18:45;21.27;;;13.48;;
38379;SDS011;38377;47.418;18.882;2023-02-24T01:21:12;19.77;;;13.60;;
38379;SDS011;38377;47.418;18.882;2023-02-24T01:23:40;22.83;;;13.27;;
38379;SDS011;38377;47.418;18.882;2023-02-24T01:26:07;19.95;;;12.90;;
38379;SDS011;38377;47.418;18.882;2023-02-24T01:28:34;22.23;;;14.00;;
38379;SDS011;38377;47.418;18.882;2023-02-24T01:31:02;21.50;;;13.85;;
38379;SDS011;38377;47.418;18.882;2023-02-24T01:33:30;20.67;;;13.13;;
38379;SDS011;38377;47.418;18.882;2023-02-24T01:36:06;22.27;;;13.75;;
38379;SDS011;38377;47.418;18.882;2023-02-24T01:38:40;17.85;;;11.63;;
38379;SDS011;38377;47.418;18.882;2023-02-24T01:41:07;20.70;;;13.13;;
38379;SDS011;38377;47.418;18.882;2023-02-24T01:43:52;20.75;;;12.10;;
38379;SDS011;38377;47.418;18.882;2023-02-24T01:46:52;24.27;;;13.38;;
38379;SDS011;38377;47.418;18.882;2023-02-24T01:49:26;18.13;;;13.18;;
38379;SDS011;38377;47.418;18.882;2023-02-24T01:52:08;19.42;;;12.32;;
38379;SDS011;38377;47.418;18.882;2023-02-24T01:54:53;20.20;;;13.20;;
38379;SDS011;38377;47.418;18.882;2023-02-24T01:57:26;21.27;;;13.13;;
38379;SDS011;38377;47.418;18.882;2023-02-24T01:59:55;18.98;;;12.52;;
38379;SDS011;38377;47.418;18.882;2023-02-24T02:02:35;18.60;;;12.07;;
38379;SDS011;38377;47.418;18.882;2023-02-24T02:05:04;17.25;;;11.30;;
38379;SDS011;38377;47.418;18.882;2023-02-24T02:07:33;17.30;;;11.93;;
38379;SDS011;38377;47.418;18.882;2023-02-24T02:09:59;22.42;;;12.55;;
38379;SDS011;38377;47.418;18.882;2023-02-24T02:12:28;22.17;;;12.35;;
38379;SDS011;38377;47.418;18.882;2023-02-24T02:14:56;21.88;;;11.98;;
38379;SDS011;38377;47.418;18.882;2023-02-24T02:17:30;18.60;;;11.98;;
38379;SDS011;38377;47.418;18.882;2023-02-24T02:34:02;17.83;;;11.07;;
38379;SDS011;38377;47.418;18.882;2023-02-24T02:36:50;18.88;;;11.70;;
38379;SDS011;38377;47.418;18.882;2023-02-24T02:42:28;18.27;;;12.27;;
38379;SDS011;38377;47.418;18.882;2023-02-24T02:45:04;19.50;;;11.15;;
38379;SDS011;38377;47.418;18.882;2023-02-24T02:47:50;17.17;;;11.27;;
38379;SDS011;38377;47.418;18.882;2023-02-24T02:50:26;15.25;;;11.23;;
38379;SDS011;38377;47.418;18.882;2023-02-24T02:55:25;18.60;;;12.10;;
38379;SDS011;38377;47.418;18.882;2023-02-24T02:58:06;14.63;;;10.18;;
38379;SDS011;38377;47.418;18.882;2023-02-24T03:00:38;18.77;;;12.15;;
38379;SDS011;38377;47.418;18.882;2023-02-24T03:03:14;17.63;;;11.18;;
38379;SDS011;38377;47.418;18.882;2023-02-24T03:05:46;20.73;;;11.18;;
38379;SDS011;38377;47.418;18.882;2023-02-24T03:08:19;17.13;;;11.25;;
38379;SDS011;38377;47.418;18.882;2023-02-24T03:10:47;17.58;;;11.60;;
38379;SDS011;38377;47.418;18.882;2023-02-24T03:13:15;17.27;;;11.25;;
38379;SDS011;38377;47.418;18.882;2023-02-24T03:15:47;18.60;;;12.13;;
38379;SDS011;38377;47.418;18.882;2023-02-24T03:18:18;18.88;;;12.65;;
38379;SDS011;38377;47.418;18.882;2023-02-24T03:20:53;20.70;;;11.68;;
38379;SDS011;38377;47.418;18.882;2023-02-24T03:23:46;19.20;;;12.02;;
38379;SDS011;38377;47.418;18.882;2023-02-24T03:26:20;22.80;;;13.38;;
38379;SDS011;38377;47.418;18.882;2023-02-24T03:34:18;20.27;;;11.50;;
38379;SDS011;38377;47.418;18.882;2023-02-24T03:36:53;20.35;;;12.50;;
38379;SDS011;38377;47.418;18.882;2023-02-24T03:39:19;20.30;;;11.57;;
38379;SDS011;38377;47.418;18.882;2023-02-24T03:41:53;17.25;;;11.93;;
38379;SDS011;38377;47.418;18.882;2023-02-24T03:44:27;18.33;;;12.10;;
38379;SDS011;38377;47.418;18.882;2023-02-24T03:46:53;19.80;;;11.60;;
38379;SDS011;38377;47.418;18.882;2023-02-24T03:49:19;21.95;;;12.30;;
38379;SDS011;38377;47.418;18.882;2023-02-24T03:51:53;19.83;;;12.60;;
38379;SDS011;38377;47.418;18.882;2023-02-24T04:00:42;18.88;;;12.77;;
38379;SDS011;38377;47.418;18.882;2023-02-24T04:06:10;18.60;;;12.43;;
38379;SDS011;38377;47.418;18.882;2023-02-24T04:09:04;21.55;;;11.82;;
38379;SDS011;38377;47.418;18.882;2023-02-24T04:14:36;16.83;;;11.80;;
38379;SDS011;38377;47.418;18.882;2023-02-24T04:17:19;20.45;;;12.63;;
38379;SDS011;38377;47.418;18.882;2023-02-24T04:19:51;17.92;;;12.15;;
38379;SDS011;38377;47.418;18.882;2023-02-24T04:22:21;22.88;;;13.00;;
38379;SDS011;38377;47.418;18.882;2023-02-24T04:24:49;18.38;;;12.25;;
38379;SDS011;38377;47.418;18.882;2023-02-24T04:27:19;19.70;;;12.63;;
38379;SDS011;38377;47.418;18.882;2023-02-24T04:29:49;20.40;;;12.25;;
38379;SDS011;38377;47.418;18.882;2023-02-24T04:32:20;20.23;;;12.48;;
38379;SDS011;38377;47.418;18.882;2023-02-24T04:34:51;20.67;;;12.63;;
38379;SDS011;38377;47.418;18.882;2023-02-24T04:37:18;21.27;;;14.63;;
38379;SDS011;38377;47.418;18.882;2023-02-24T04:39:47;28.75;;;14.10;;
38379;SDS011;38377;47.418;18.882;2023-02-24T04:42:15;24.40;;;14.18;;
38379;SDS011;38377;47.418;18.882;2023-02-24T04:44:44;22.45;;;14.63;;
38379;SDS011;38377;47.418;18.882;2023-02-24T04:47:10;23.65;;;14.18;;
38379;SDS011;38377;47.418;18.882;2023-02-24T04:49:36;24.73;;;14.52;;
38379;SDS011;38377;47.418;18.882;2023-02-24T04:52:05;24.27;;;14.43;;
38379;SDS011;38377;47.418;18.882;2023-02-24T04:54:33;21.70;;;13.25;;
38379;SDS011;38377;47.418;18.882;2023-02-24T04:56:59;23.65;;;14.63;;
38379;SDS011;38377;47.418;18.882;2023-02-24T04:59:25;22.52;;;13.88;;
38379;SDS011;38377;47.418;18.882;2023-02-24T05:01:51;26.13;;;14.70;;
38379;SDS011;38377;47.418;18.882;2023-02-24T05:04:18;21.42;;;14.15;;
38379;SDS011;38377;47.418;18.882;2023-02-24T05:06:44;22.08;;;14.07;;
38379;SDS011;38377;47.418;18.882;2023-02-24T05:09:12;25.10;;;14.50;;
38379;SDS011;38377;47.418;18.882;2023-02-24T05:11:41;23.42;;;14.75;;
38379;SDS011;38377;47.418;18.882;2023-02-24T05:14:13;22.63;;;14.80;;
38379;SDS011;38377;47.418;18.882;2023-02-24T05:16:44;25.88;;;14.82;;
38379;SDS011;38377;47.418;18.882;2023-02-24T05:21:56;27.83;;;16.15;;
38379;SDS011;38377;47.418;18.882;2023-02-24T05:24:23;30.35;;;18.48;;
38379;SDS011;38377;47.418;18.882;2023-02-24T05:26:51;27.23;;;16.15;;
38379;SDS011;38377;47.418;18.882;2023-02-24T05:29:23;29.15;;;17.33;;
38379;SDS011;38377;47.418;18.882;2023-02-24T05:31:50;26.33;;;15.88;;
38379;SDS011;38377;47.418;18.882;2023-02-24T05:34:18;29.60;;;16.45;;
38379;SDS011;38377;47.418;18.882;2023-02-24T05:36:44;25.50;;;16.58;;
38379;SDS011;38377;47.418;18.882;2023-02-24T05:39:11;22.77;;;16.55;;
38379;SDS011;38377;47.418;18.882;2023-02-24T05:41:43;24.27;;;16.05;;
38379;SDS011;38377;47.418;18.882;2023-02-24T05:44:13;26.02;;;16.65;;
38379;SDS011;38377;47.418;18.882;2023-02-24T05:46:42;31.13;;;17.42;;
38379;SDS011;38377;47.418;18.882;2023-02-24T05:49:14;26.58;;;16.75;;
38379;SDS011;38377;47.418;18.882;2023-02-24T05:51:47;28.55;;;16.52;;
38379;SDS011;38377;47.418;18.882;2023-02-24T05:54:21;31.05;;;17.77;;
38379;SDS011;38377;47.418;18.882;2023-02-24T05:56:52;28.23;;;17.50;;
38379;SDS011;38377;47.418;18.882;2023-02-24T05:59:21;27.10;;;17.38;;
38379;SDS011;38377;47.418;18.882;2023-02-24T06:01:47;26.42;;;17.20;;
38379;SDS011;38377;47.418;18.882;2023-02-24T06:04:17;26.50;;;17.03;;
38379;SDS011;38377;47.418;18.882;2023-02-24T06:07:03;31.45;;;19.10;;
38379;SDS011;38377;47.418;18.882;2023-02-24T06:09:43;29.30;;;17.48;;
38379;SDS011;38377;47.418;18.882;2023-02-24T06:12:17;29.92;;;17.75;;
38379;SDS011;38377;47.418;18.882;2023-02-24T06:14:45;28.25;;;17.77;;
38379;SDS011;38377;47.418;18.882;2023-02-24T06:17:11;29.08;;;17.60;;
38379;SDS011;38377;47.418;18.882;2023-02-24T06:19:39;26.73;;;17.60;;
38379;SDS011;38377;47.418;18.882;2023-02-24T06:22:05;29.25;;;17.75;;
38379;SDS011;38377;47.418;18.882;2023-02-24T06:24:35;26.33;;;18.13;;
38379;SDS011;38377;47.418;18.882;2023-02-24T06:27:03;60.50;;;34.17;;
38379;SDS011;38377;47.418;18.882;2023-02-24T06:29:35;56.90;;;37.47;;
38379;SDS011;38377;47.418;18.882;2023-02-24T06:32:01;37.42;;;22.58;;
38379;SDS011;38377;47.418;18.882;2023-02-24T06:34:35;34.67;;;23.45;;
38379;SDS011;38377;47.418;18.882;2023-02-24T06:37:03;30.60;;;19.83;;
38379;SDS011;38377;47.418;18.882;2023-02-24T06:39:29;31.77;;;19.60;;
38379;SDS011;38377;47.418;18.882;2023-02-24T06:41:59;31.02;;;20.15;;
38379;SDS011;38377;47.418;18.882;2023-02-24T06:44:32;35.10;;;20.70;;
38379;SDS011;38377;47.418;18.882;2023-02-24T06:46:59;31.10;;;20.88;;
38379;SDS011;38377;47.418;18.882;2023-02-24T06:49:26;33.22;;;22.83;;
38379;SDS011;38377;47.418;18.882;2023-02-24T06:51:52;34.53;;;23.63;;
38379;SDS011;38377;47.418;18.882;2023-02-24T06:54:22;39.03;;;28.40;;
38379;SDS011;38377;47.418;18.882;2023-02-24T06:56:49;34.15;;;22.90;;
38379;SDS011;38377;47.418;18.882;2023-02-24T06:59:16;35.95;;;21.55;;
38379;SDS011;38377;47.418;18.882;2023-02-24T07:01:53;32.13;;;20.58;;
38379;SDS011;38377;47.418;18.882;2023-02-24T07:04:20;37.25;;;20.02;;
38379;SDS011;38377;47.418;18.882;2023-02-24T07:06:56;32.40;;;20.33;;
38379;SDS011;38377;47.418;18.882;2023-02-24T07:09:26;35.92;;;20.42;;
38379;SDS011;38377;47.418;18.882;2023-02-24T07:11:54;31.35;;;18.48;;
38379;SDS011;38377;47.418;18.882;2023-02-24T07:14:24;37.00;;;21.50;;
38379;SDS011;38377;47.418;18.882;2023-02-24T07:16:51;33.00;;;20.15;;
38379;SDS011;38377;47.418;18.882;2023-02-24T07:19:23;31.67;;;21.00;;
38379;SDS011;38377;47.418;18.882;2023-02-24T07:21:53;28.17;;;19.52;;
38379;SDS011;38377;47.418;18.882;2023-02-24T07:24:24;32.30;;;20.50;;
38379;SDS011;38377;47.418;18.882;2023-02-24T07:26:58;34.42;;;20.45;;
38379;SDS011;38377;47.418;18.882;2023-02-24T07:29:25;29.13;;;19.58;;
38379;SDS011;38377;47.418;18.882;2023-02-24T07:31:52;31.85;;;19.58;;
38379;SDS011;38377;47.418;18.882;2023-02-24T07:34:21;35.22;;;20.70;;
38379;SDS011;38377;47.418;18.882;2023-02-24T07:36:51;29.65;;;19.23;;
38379;SDS011;38377;47.418;18.882;2023-02-24T07:39:18;28.27;;;18.60;;
38379;SDS011;38377;47.418;18.882;2023-02-24T07:41:47;35.60;;;21.52;;
38379;SDS011;38377;47.418;18.882;2023-02-24T07:44:19;33.50;;;22.90;;
38379;SDS011;38377;47.418;18.882;2023-02-24T07:46:45;27.60;;;18.88;;
38379;SDS011;38377;47.418;18.882;2023-02-24T07:49:13;28.38;;;17.65;;
38379;SDS011;38377;47.418;18.882;2023-02-24T07:51:43;28.00;;;17.25;;
38379;SDS011;38377;47.418;18.882;2023-02-24T07:54:11;25.63;;;17.83;;
38379;SDS011;38377;47.418;18.882;2023-02-24T07:56:39;26.02;;;17.88;;
38379;SDS011;38377;47.418;18.882;2023-02-24T07:59:10;24.55;;;17.17;;
38379;SDS011;38377;47.418;18.882;2023-02-24T08:01:40;28.75;;;17.88;;
38379;SDS011;38377;47.418;18.882;2023-02-24T08:04:14;32.47;;;18.75;;
38379;SDS011;38377;47.418;18.882;2023-02-24T08:06:44;26.35;;;16.52;;
38379;SDS011;38377;47.418;18.882;2023-02-24T08:09:18;25.85;;;19.30;;
38379;SDS011;38377;47.418;18.882;2023-02-24T08:14:18;24.73;;;17.65;;
38379;SDS011;38377;47.418;18.882;2023-02-24T08:16:49;28.55;;;17.85;;
38379;SDS011;38377;47.418;18.882;2023-02-24T08:19:17;23.27;;;17.63;;
38379;SDS011;38377;47.418;18.882;2023-02-24T08:21:48;26.05;;;18.70;;
38379;SDS011;38377;47.418;18.882;2023-02-24T08:24:20;27.10;;;17.70;;
38379;SDS011;38377;47.418;18.882;2023-02-24T08:26:54;25.35;;;17.65;;
38379;SDS011;38377;47.418;18.882;2023-02-24T08:32:04;27.27;;;17.90;;
38379;SDS011;38377;47.418;18.882;2023-02-24T08:34:34;25.02;;;16.60;;
38379;SDS011;38377;47.418;18.882;2023-02-24T08:37:01;34.17;;;19.90;;
38379;SDS011;38377;47.418;18.882;2023-02-24T08:39:27;24.25;;;17.17;;
38379;SDS011;38377;47.418;18.882;2023-02-24T08:41:57;27.48;;;18.65;;
38379;SDS011;38377;47.418;18.882;2023-02-24T08:44:23;27.17;;;17.52;;
38379;SDS011;38377;47.418;18.882;2023-02-24T08:46:52;25.30;;;18.42;;
38379;SDS011;38377;47.418;18.882;2023-02-24T08:49:18;26.33;;;16.70;;
38379;SDS011;38377;47.418;18.882;2023-02-24T08:51:46;27.08;;;18.02;;
38379;SDS011;38377;47.418;18.882;2023-02-24T08:54:16;25.08;;;17.48;;
38379;SDS011;38377;47.418;18.882;2023-02-24T08:56:51;25.10;;;16.85;;
38379;SDS011;38377;47.418;18.882;2023-02-24T08:59:23;28.58;;;18.02;;
38379;SDS011;38377;47.418;18.882;2023-02-24T09:01:56;26.63;;;18.23;;
38379;SDS011;38377;47.418;18.882;2023-02-24T09:04:41;24.95;;;18.13;;
38379;SDS011;38377;47.418;18.882;2023-02-24T09:07:17;24.80;;;17.27;;
38379;SDS011;38377;47.418;18.882;2023-02-24T09:09:46;24.20;;;16.08;;
38379;SDS011;38377;47.418;18.882;2023-02-24T09:12:12;29.05;;;17.05;;
38379;SDS011;38377;47.418;18.882;2023-02-24T09:14:54;24.33;;;16.00;;
38379;SDS011;38377;47.418;18.882;2023-02-24T09:17:22;27.10;;;17.75;;
38379;SDS011;38377;47.418;18.882;2023-02-24T09:22:54;29.30;;;17.13;;
38379;SDS011;38377;47.418;18.882;2023-02-24T09:25:27;25.40;;;17.63;;
38379;SDS011;38377;47.418;18.882;2023-02-24T09:28:19;23.80;;;16.83;;
38379;SDS011;38377;47.418;18.882;2023-02-24T09:33:39;21.55;;;15.85;;
38379;SDS011;38377;47.418;18.882;2023-02-24T09:36:12;25.95;;;18.05;;
38379;SDS011;38377;47.418;18.882;2023-02-24T09:38:59;25.48;;;17.52;;
38379;SDS011;38377;47.418;18.882;2023-02-24T09:41:45;48.40;;;18.40;;
38379;SDS011;38377;47.418;18.882;2023-02-24T09:44:35;26.23;;;16.48;;
38379;SDS011;38377;47.418;18.882;2023-02-24T09:49:53;23.83;;;17.00;;
38379;SDS011;38377;47.418;18.882;2023-02-24T09:52:26;27.23;;;17.92;;
38379;SDS011;38377;47.418;18.882;2023-02-24T10:06:28;29.55;;;18.60;;
38379;SDS011;38377;47.418;18.882;2023-02-24T10:11:43;28.02;;;18.33;;
38379;SDS011;38377;47.418;18.882;2023-02-24T10:17:21;23.77;;;18.45;;
38379;SDS011;38377;47.418;18.882;2023-02-24T10:20:34;23.63;;;17.33;;
38379;SDS011;38377;47.418;18.882;2023-02-24T10:30:47;26.27;;;18.67;;
38379;SDS011;38377;47.418;18.882;2023-02-24T10:33:43;25.48;;;17.52;;
38379;SDS011;38377;47.418;18.882;2023-02-24T10:36:12;24.85;;;17.63;;
38379;SDS011;38377;47.418;18.882;2023-02-24T10:38:41;26.80;;;18.98;;
38379;SDS011;38377;47.418;18.882;2023-02-24T10:41:14;29.75;;;18.42;;
38379;SDS011;38377;47.418;18.882;2023-02-24T10:43:51;28.85;;;18.70;;
38379;SDS011;38377;47.418;18.882;2023-02-24T10:46:28;28.70;;;19.50;;
38379;SDS011;38377;47.418;18.882;2023-02-24T10:48:58;30.48;;;20.02;;
38379;SDS011;38377;47.418;18.882;2023-02-24T10:51:39;29.33;;;19.92;;
38379;SDS011;38377;47.418;18.882;2023-02-24T11:00:00;28.98;;;20.35;;
38379;SDS011;38377;47.418;18.882;2023-02-24T11:02:33;30.52;;;19.42;;
38379;SDS011;38377;47.418;18.882;2023-02-24T11:05:20;29.40;;;19.02;;
38379;SDS011;38377;47.418;18.882;2023-02-24T11:08:15;34.10;;;22.52;;
38379;SDS011;38377;47.418;18.882;2023-02-24T11:13:47;33.70;;;21.05;;
38379;SDS011;38377;47.418;18.882;2023-02-24T11:22:12;31.50;;;21.08;;
38379;SDS011;38377;47.418;18.882;2023-02-24T11:24:42;32.42;;;20.63;;
38379;SDS011;38377;47.418;18.882;2023-02-24T11:27:09;32.42;;;21.92;;
38379;SDS011;38377;47.418;18.882;2023-02-24T11:43:48;32.35;;;22.40;;
38379;SDS011;38377;47.418;18.882;2023-02-24T11:46:28;32.63;;;22.23;;
38379;SDS011;38377;47.418;18.882;2023-02-24T11:49:05;32.17;;;21.88;;
38379;SDS011;38377;47.418;18.882;2023-02-24T11:51:47;36.22;;;23.38;;
38379;SDS011;38377;47.418;18.882;2023-02-24T11:54:14;35.55;;;22.30;;
38379;SDS011;38377;47.418;18.882;2023-02-24T11:56:52;32.83;;;22.83;;
38379;SDS011;38377;47.418;18.882;2023-02-24T11:59:35;32.38;;;21.88;;
38379;SDS011;38377;47.418;18.882;2023-02-24T12:07:28;30.98;;;21.33;;
38379;SDS011;38377;47.418;18.882;2023-02-24T12:13:15;39.92;;;22.65;;
38379;SDS011;38377;47.418;18.882;2023-02-24T12:16:12;41.17;;;23.38;;
38379;SDS011;38377;47.418;18.882;2023-02-24T12:18:53;31.42;;;22.23;;
38379;SDS011;38377;47.418;18.882;2023-02-24T12:21:28;32.25;;;21.75;;
38379;SDS011;38377;47.418;18.882;2023-02-24T12:24:00;38.80;;;22.85;;
38379;SDS011;38377;47.418;18.882;2023-02-24T12:26:45;33.28;;;21.85;;
38379;SDS011;38377;47.418;18.882;2023-02-24T12:40:43;30.55;;;20.08;;
38379;SDS011;38377;47.418;18.882;2023-02-24T12:43:34;28.50;;;18.67;;
38379;SDS011;38377;47.418;18.882;2023-02-24T12:54:16;28.15;;;18.35;;
38379;SDS011;38377;47.418;18.882;2023-02-24T12:56:54;26.48;;;18.20;;
38379;SDS011;38377;47.418;18.882;2023-02-24T12:59:41;31.08;;;19.50;;
38379;SDS011;38377;47.418;18.882;2023-02-24T13:02:25;29.30;;;19.90;;
38379;SDS011;38377;47.418;18.882;2023-02-24T13:05:21;29.60;;;19.52;;
38379;SDS011;38377;47.418;18.882;2023-02-24T13:10:42;28.17;;;17.67;;
38379;SDS011;38377;47.418;18.882;2023-02-24T13:13:18;28.13;;;17.20;;
38379;SDS011;38377;47.418;18.882;2023-02-24T13:15:55;22.63;;;15.45;;
38379;SDS011;38377;47.418;18.882;2023-02-24T13:18:23;26.20;;;16.80;;
38379;SDS011;38377;47.418;18.882;2023-02-24T13:20:59;24.80;;;16.20;;
38379;SDS011;38377;47.418;18.882;2023-02-24T13:23:41;21.40;;;15.30;;
38379;SDS011;38377;47.418;18.882;2023-02-24T13:26:25;27.60;;;17.38;;
38379;SDS011;38377;47.418;18.882;2023-02-24T13:29:07;30.05;;;18.58;;
38379;SDS011;38377;47.418;18.882;2023-02-24T13:31:41;30.88;;;17.08;;
38379;SDS011;38377;47.418;18.882;2023-02-24T13:34:13;28.75;;;17.23;;
38379;SDS011;38377;47.418;18.882;2023-02-24T13:36:59;26.02;;;16.95;;
38379;SDS011;38377;47.418;18.882;2023-02-24T13:42:05;24.52;;;16.23;;
38379;SDS011;38377;47.418;18.882;2023-02-24T13:44:52;28.77;;;16.38;;
38379;SDS011;38377;47.418;18.882;2023-02-24T13:50:35;30.20;;;18.70;;
38379;SDS011;38377;47.418;18.882;2023-02-24T13:58:58;23.20;;;15.18;;
38379;SDS011;38377;47.418;18.882;2023-02-24T14:01:55;41.10;;;19.77;;
38379;SDS011;38377;47.418;18.882;2023-02-24T14:04:26;22.17;;;14.23;;
38379;SDS011;38377;47.418;18.882;2023-02-24T14:07:01;25.63;;;16.05;;
38379;SDS011;38377;47.418;18.882;2023-02-24T14:09:32;33.28;;;16.85;;
38379;SDS011;38377;47.418;18.882;2023-02-24T14:12:04;28.52;;;16.70;;
38379;SDS011;38377;47.418;18.882;2023-02-24T14:14:36;24.42;;;15.68;;
38379;SDS011;38377;47.418;18.882;2023-02-24T14:17:03;25.42;;;15.15;;
38379;SDS011;38377;47.418;18.882;2023-02-24T14:19:28;26.83;;;16.05;;
38379;SDS011;38377;47.418;18.882;2023-02-24T14:21:56;23.50;;;16.25;;
38379;SDS011;38377;47.418;18.882;2023-02-24T14:24:25;25.65;;;16.60;;
38379;SDS011;38377;47.418;18.882;2023-02-24T14:26:56;24.33;;;17.05;;
38379;SDS011;38377;47.418;18.882;2023-02-24T14:29:29;26.42;;;16.65;;
38379;SDS011;38377;47.418;18.882;2023-02-24T14:31:59;26.55;;;17.45;;
38379;SDS011;38377;47.418;18.882;2023-02-24T14:34:27;29.48;;;17.02;;
38379;SDS011;38377;47.418;18.882;2023-02-24T14:36:56;24.80;;;16.95;;
38379;SDS011;38377;47.418;18.882;2023-02-24T14:39:24;29.58;;;16.73;;
38379;SDS011;38377;47.418;18.882;2023-02-24T14:44:32;26.25;;;17.83;;
38379;SDS011;38377;47.418;18.882;2023-02-24T14:47:08;29.90;;;17.23;;
38379;SDS011;38377;47.418;18.882;2023-02-24T14:49:35;25.83;;;16.75;;
38379;SDS011;38377;47.418;18.882;2023-02-24T14:54:52;27.65;;;17.23;;
38379;SDS011;38377;47.418;18.882;2023-02-24T14:57:29;28.33;;;17.77;;
38379;SDS011;38377;47.418;18.882;2023-02-24T15:00:00;29.65;;;17.23;;
38379;SDS011;38377;47.418;18.882;2023-02-24T15:02:36;28.88;;;18.70;;
38379;SDS011;38377;47.418;18.882;2023-02-24T15:05:07;28.17;;;17.08;;
38379;SDS011;38377;47.418;18.882;2023-02-24T15:07:35;34.45;;;19.60;;
38379;SDS011;38377;47.418;18.882;2023-02-24T15:10:02;29.48;;;18.73;;
38379;SDS011;38377;47.418;18.882;2023-02-24T15:17:32;35.95;;;21.20;;
38379;SDS011;38377;47.418;18.882;2023-02-24T15:20:22;32.30;;;21.05;;
38379;SDS011;38377;47.418;18.882;2023-02-24T15:22:51;31.00;;;20.52;;
38379;SDS011;38377;47.418;18.882;2023-02-24T15:25:22;34.53;;;21.83;;
38379;SDS011;38377;47.418;18.882;2023-02-24T15:27:51;30.92;;;19.45;;
38379;SDS011;38377;47.418;18.882;2023-02-24T15:30:31;30.30;;;18.65;;
38379;SDS011;38377;47.418;18.882;2023-02-24T15:35:26;26.73;;;15.65;;
38379;SDS011;38377;47.418;18.882;2023-02-24T15:37:52;25.55;;;15.35;;
38379;SDS011;38377;47.418;18.882;2023-02-24T15:42:56;28.67;;;17.45;;
38379;SDS011;38377;47.418;18.882;2023-02-24T15:45:34;32.00;;;17.85;;
38379;SDS011;38377;47.418;18.882;2023-02-24T15:48:02;30.45;;;18.77;;
38379;SDS011;38377;47.418;18.882;2023-02-24T15:50:43;33.47;;;17.17;;
38379;SDS011;38377;47.418;18.882;2023-02-24T15:53:09;27.05;;;14.50;;
38379;SDS011;38377;47.418;18.882;2023-02-24T15:55:37;26.38;;;14.77;;
38379;SDS011;38377;47.418;18.882;2023-02-24T15:58:05;31.92;;;16.65;;
38379;SDS011;38377;47.418;18.882;2023-02-24T16:03:02;25.70;;;16.20;;
38379;SDS011;38377;47.418;18.882;2023-02-24T16:05:27;30.80;;;16.02;;
38379;SDS011;38377;47.418;18.882;2023-02-24T16:07:53;26.92;;;14.35;;
38379;SDS011;38377;47.418;18.882;2023-02-24T16:10:20;29.67;;;17.25;;
38379;SDS011;38377;47.418;18.882;2023-02-24T16:12:50;26.80;;;14.90;;
38379;SDS011;38377;47.418;18.882;2023-02-24T16:15:23;29.75;;;15.45;;
38379;SDS011;38377;47.418;18.882;2023-02-24T16:17:54;40.88;;;31.70;;
38379;SDS011;38377;47.418;18.882;2023-02-24T16:22:55;22.23;;;14.10;;
38379;SDS011;38377;47.418;18.882;2023-02-24T16:25:22;24.85;;;14.55;;
38379;SDS011;38377;47.418;18.882;2023-02-24T16:27:49;28.83;;;14.90;;
38379;SDS011;38377;47.418;18.882;2023-02-24T16:30:22;26.48;;;15.50;;
38379;SDS011;38377;47.418;18.882;2023-02-24T16:32:54;28.23;;;14.00;;
38379;SDS011;38377;47.418;18.882;2023-02-24T16:35:21;23.48;;;14.05;;
38379;SDS011;38377;47.418;18.882;2023-02-24T16:37:47;28.33;;;15.50;;
38379;SDS011;38377;47.418;18.882;2023-02-24T16:40:18;21.35;;;14.48;;
38379;SDS011;38377;47.418;18.882;2023-02-24T16:42:50;21.92;;;14.05;;
38379;SDS011;38377;47.418;18.882;2023-02-24T16:45:17;23.75;;;15.75;;
38379;SDS011;38377;47.418;18.882;2023-02-24T16:47:44;26.10;;;15.40;;
38379;SDS011;38377;47.418;18.882;2023-02-24T16:50:20;26.98;;;16.55;;
38379;SDS011;38377;47.418;18.882;2023-02-24T16:52:47;25.20;;;15.68;;
38379;SDS011;38377;47.418;18.882;2023-02-24T16:55:13;26.95;;;16.55;;
38379;SDS011;38377;47.418;18.882;2023-02-24T16:57:40;23.17;;;15.88;;
38379;SDS011;38377;47.418;18.882;2023-02-24T17:00:06;26.13;;;15.48;;
38379;SDS011;38377;47.418;18.882;2023-02-24T17:02:33;26.27;;;16.55;;
38379;SDS011;38377;47.418;18.882;2023-02-24T17:04:59;23.52;;;15.43;;
38379;SDS011;38377;47.418;18.882;2023-02-24T17:07:25;26.95;;;17.00;;
38379;SDS011;38377;47.418;18.882;2023-02-24T17:09:51;27.90;;;16.73;;
38379;SDS011;38377;47.418;18.882;2023-02-24T17:12:18;28.88;;;17.13;;
38379;SDS011;38377;47.418;18.882;2023-02-24T17:14:45;35.63;;;18.88;;
38379;SDS011;38377;47.418;18.882;2023-02-24T17:17:11;29.50;;;16.98;;
38379;SDS011;38377;47.418;18.882;2023-02-24T17:19:37;37.55;;;22.10;;
38379;SDS011;38377;47.418;18.882;2023-02-24T17:22:03;33.53;;;20.45;;
38379;SDS011;38377;47.418;18.882;2023-02-24T17:24:29;39.17;;;21.40;;
38379;SDS011;38377;47.418;18.882;2023-02-24T17:26:55;46.78;;;26.15;;